Time;durP1;ratioP1;P1;durP2;ratioP2;P2;SDS_P1;SDS_P2;PMS_P1;PMS_P2;Temp;Humidity;BMP_temperature;BMP_pressure;BME280_temperature;BME280_humidity;BME280_pressure;Samples;Min_cycle;Max_cycle;Signal;HPM_P1;HPM_P2
2023/01/30 00:00:53;;;;;;;18.93;13.77;;;;;;;0.41;72.07;96178.63;6096197;23;20184;-87
2023/01/30 00:03:20;;;;;;;17.30;12.83;;;;;;;0.40;72.44;96171.94;6098045;23;20190;-86
2023/01/30 00:05:50;;;;;;;20.37;14.30;;;;;;;0.42;72.27;96165.06;6098142;23;20180;-86
2023/01/30 00:08:20;;;;;;;19.23;13.97;;;;;;;0.41;72.28;96164.25;6097629;23;20172;-86
2023/01/30 00:10:47;;;;;;;20.90;15.03;;;;;;;0.39;72.28;96158.47;6097606;23;20207;-86
2023/01/30 00:13:14;;;;;;;19.40;13.90;;;;;;;0.33;72.07;96152.09;6097672;23;20195;-86
2023/01/30 00:15:43;;;;;;;19.13;13.37;;;;;;;0.34;72.17;96151.19;6096879;23;20180;-87
2023/01/30 00:18:09;;;;;;;18.43;13.47;;;;;;;0.33;72.23;96147.03;6097126;23;20200;-86
2023/01/30 00:20:36;;;;;;;21.00;14.57;;;;;;;0.37;72.06;96149.38;6097866;23;20240;-86
2023/01/30 00:23:02;;;;;;;17.87;13.87;;;;;;;0.38;72.14;96140.88;6097825;23;20181;-86
2023/01/30 00:25:31;;;;;;;20.57;14.60;;;;;;;0.27;72.20;96142.38;6096971;23;20180;-86
2023/01/30 00:28:00;;;;;;;17.53;12.93;;;;;;;0.35;71.90;96144.41;6096971;23;20180;-87
2023/01/30 00:30:26;;;;;;;18.90;14.20;;;;;;;0.36;72.28;96138.44;6097571;23;20200;-88
2023/01/30 00:32:55;;;;;;;19.13;14.20;;;;;;;0.38;71.85;96131.56;6096940;23;20188;-87
2023/01/30 00:35:27;;;;;;;18.97;13.93;;;;;;;0.39;71.87;96127.25;6097520;23;20186;-87
2023/01/30 00:37:54;;;;;;;19.20;13.73;;;;;;;0.33;71.83;96125.97;6099196;23;20236;-86
2023/01/30 00:40:20;;;;;;;20.83;13.87;;;;;;;0.37;72.04;96122.34;6098853;23;20298;-86
2023/01/30 00:48:16;;;;;;;18.27;14.00;;;;;;;0.30;72.17;96108.44;6098437;23;20163;-86
2023/01/30 00:50:42;;;;;;;18.23;13.63;;;;;;;0.28;71.83;96111.06;6098950;23;20184;-87
2023/01/30 00:53:10;;;;;;;18.63;14.13;;;;;;;0.22;71.98;96103.88;6100672;23;20187;-85
2023/01/30 00:55:37;;;;;;;19.60;14.60;;;;;;;0.25;71.78;96098.59;6100163;23;20177;-86
2023/01/30 00:58:03;;;;;;;21.23;15.27;;;;;;;0.22;72.09;96093.75;6099885;23;20200;-86
2023/01/30 01:00:30;;;;;;;18.97;13.33;;;;;;;0.24;71.95;96091.91;6099592;23;20283;-86
2023/01/30 01:02:56;;;;;;;18.33;13.13;;;;;;;0.21;72.02;96089.59;6099302;23;20340;-87
2023/01/30 01:05:24;;;;;;;21.00;14.70;;;;;;;0.19;72.04;96088.09;6099746;23;20180;-86
2023/01/30 01:07:51;;;;;;;19.27;13.53;;;;;;;0.21;71.87;96082.00;6099390;23;20189;-87
2023/01/30 01:10:17;;;;;;;19.90;14.07;;;;;;;0.20;72.27;96077.84;6099148;23;20196;-87
2023/01/30 01:12:44;;;;;;;19.47;14.47;;;;;;;0.15;72.29;96072.28;6100045;23;20234;-86
2023/01/30 01:15:11;;;;;;;18.03;13.13;;;;;;;0.00;72.67;96071.53;6100914;23;20180;-86
2023/01/30 01:17:38;;;;;;;21.40;14.17;;;;;;;-0.07;73.24;96077.13;6098868;23;20210;-86
2023/01/30 01:20:06;;;;;;;18.93;14.27;;;;;;;-0.02;73.05;96080.19;6099631;23;20201;-87
2023/01/30 01:22:34;;;;;;;20.30;14.37;;;;;;;0.01;73.00;96077.41;6099428;23;20245;-87
2023/01/30 01:25:01;;;;;;;19.97;14.67;;;;;;;0.05;72.78;96073.78;6099191;23;20259;-87
2023/01/30 01:27:28;;;;;;;19.43;14.03;;;;;;;0.07;72.90;96068.63;6100040;23;20196;-87
2023/01/30 01:29:55;;;;;;;20.93;14.30;;;;;;;0.10;72.59;96076.84;6099373;23;20196;-86
2023/01/30 01:32:22;;;;;;;19.37;13.70;;;;;;;0.19;72.68;96075.44;6099326;23;20177;-86
2023/01/30 01:34:48;;;;;;;19.77;14.40;;;;;;;0.19;72.26;96067.84;6100851;23;20180;-86
2023/01/30 01:37:15;;;;;;;18.90;14.40;;;;;;;0.15;72.45;96072.28;6100649;23;20207;-87
2023/01/30 01:42:33;;;;;;;20.53;14.87;;;;;;;0.17;72.38;96080.59;6100414;23;20167;-87
2023/01/30 01:45:11;;;;;;;20.00;14.40;;;;;;;0.10;72.50;96069.25;6100291;23;20183;-86
2023/01/30 01:47:40;;;;;;;17.07;12.93;;;;;;;-0.01;72.36;96059.84;6102115;23;20167;-86
2023/01/30 01:50:15;;;;;;;20.17;14.53;;;;;;;-0.01;72.64;96052.25;6100543;23;20204;-86
2023/01/30 01:52:44;;;;;;;20.23;14.13;;;;;;;-0.02;72.16;96049.81;6101033;23;20165;-86
2023/01/30 01:55:13;;;;;;;19.03;14.03;;;;;;;0.00;72.44;96041.16;6101213;23;20200;-87
2023/01/30 01:57:45;;;;;;;19.67;14.13;;;;;;;0.02;72.21;96041.06;6100754;23;20200;-85
2023/01/30 02:00:15;;;;;;;20.10;14.50;;;;;;;0.07;71.93;96050.91;6100440;23;20200;-85
2023/01/30 02:02:47;;;;;;;19.83;14.57;;;;;;;0.10;72.35;96056.59;6099963;23;20181;-85
2023/01/30 02:05:17;;;;;;;20.00;14.57;;;;;;;0.03;72.56;96062.94;6101026;23;20473;-86
2023/01/30 02:07:50;;;;;;;21.53;14.60;;;;;;;0.09;72.33;96065.09;6101145;23;20173;-87
2023/01/30 02:10:22;;;;;;;20.03;14.40;;;;;;;0.12;71.95;96056.47;6099882;23;20196;-87
2023/01/30 02:12:50;;;;;;;18.07;13.90;;;;;;;0.13;71.60;96060.63;6099997;23;20192;-86
2023/01/30 02:15:18;;;;;;;20.17;14.30;;;;;;;0.14;71.77;96062.25;6099838;23;20180;-86
2023/01/30 02:17:45;;;;;;;19.33;14.37;;;;;;;0.14;71.50;96067.31;6099936;23;20508;-85
2023/01/30 02:20:45;;;;;;;20.03;14.53;;;;;;;0.14;71.35;96060.53;6100053;23;20207;-84
2023/01/30 02:24:03;;;;;;;19.00;13.93;;;;;;;0.13;71.42;96080.88;6100369;23;20520;-87
2023/01/30 02:26:54;;;;;;;18.07;13.40;;;;;;;0.11;71.49;96073.41;6099929;23;20200;-87
2023/01/30 02:29:51;;;;;;;20.90;14.17;;;;;;;0.08;71.69;96076.13;6100618;23;20196;-86
2023/01/30 02:32:25;;;;;;;20.73;14.83;;;;;;;0.12;71.54;96064.06;6099922;23;20173;-87
2023/01/30 02:35:04;;;;;;;20.53;14.90;;;;;;;0.09;71.36;96054.97;6099661;23;20802;-87
2023/01/30 02:37:44;;;;;;;20.93;14.73;;;;;;;0.12;71.31;96056.47;6099274;23;20181;-86
2023/01/30 02:40:21;;;;;;;19.90;14.37;;;;;;;0.12;71.69;96066.59;6098852;23;20279;-86
2023/01/30 02:42:58;;;;;;;18.57;13.73;;;;;;;0.08;71.13;96071.06;6098353;23;20160;-87
2023/01/30 02:45:33;;;;;;;18.13;13.50;;;;;;;0.07;71.27;96071.97;6100041;23;20171;-86
2023/01/30 02:48:03;;;;;;;19.80;13.80;;;;;;;0.03;71.69;96074.78;6098731;23;20525;-85
2023/01/30 02:50:34;;;;;;;20.43;15.00;;;;;;;0.01;71.55;96074.88;6099113;23;20684;-86
2023/01/30 02:53:02;;;;;;;21.07;14.70;;;;;;;-0.06;71.86;96073.69;6099657;23;20160;-85
2023/01/30 02:55:29;;;;;;;21.13;15.57;;;;;;;-0.05;71.83;96071.06;6098870;23;20180;-86
2023/01/30 02:57:56;;;;;;;20.83;14.57;;;;;;;-0.05;71.82;96073.59;6100292;23;20207;-87
2023/01/30 03:00:40;;;;;;;18.80;13.67;;;;;;;-0.03;71.72;96086.16;6099968;23;20223;-86
2023/01/30 03:03:35;;;;;;;21.33;14.87;;;;;;;-0.09;71.33;96087.34;6100109;23;20224;-85
2023/01/30 03:06:30;;;;;;;20.57;14.00;;;;;;;-0.10;71.96;96083.19;6100840;23;20168;-86
2023/01/30 03:09:08;;;;;;;22.00;14.70;;;;;;;-0.16;72.06;96082.75;6100141;23;20203;-86
2023/01/30 03:11:44;;;;;;;20.23;14.77;;;;;;;-0.17;72.20;96097.13;6101188;23;20194;-85
2023/01/30 03:14:18;;;;;;;19.57;13.83;;;;;;;-0.21;72.30;96082.28;6100668;23;20172;-86
2023/01/30 03:16:46;;;;;;;19.43;13.47;;;;;;;-0.23;72.08;96082.38;6099670;23;20600;-85
2023/01/30 03:19:14;;;;;;;19.53;14.33;;;;;;;-0.26;72.23;96082.56;6098984;23;20561;-85
2023/01/30 03:21:43;;;;;;;21.23;14.60;;;;;;;-0.22;72.05;96070.53;6099869;23;20187;-85
2023/01/30 03:24:10;;;;;;;18.97;14.33;;;;;;;-0.22;72.23;96055.34;6101389;23;20882;-85
2023/01/30 03:26:42;;;;;;;18.33;13.67;;;;;;;-0.28;72.63;96043.09;6100078;23;20180;-85
2023/01/30 03:29:09;;;;;;;21.07;14.63;;;;;;;-0.31;72.28;96044.09;6099844;23;20196;-86
2023/01/30 03:31:35;;;;;;;20.57;14.63;;;;;;;-0.32;72.80;96044.19;6100881;23;20187;-86
2023/01/30 03:34:01;;;;;;;20.60;14.90;;;;;;;-0.37;72.94;96054.59;6099770;23;20180;-85
2023/01/30 03:36:29;;;;;;;20.80;14.23;;;;;;;-0.37;73.42;96062.19;6099194;23;20704;-86
2023/01/30 03:38:56;;;;;;;21.53;14.67;;;;;;;-0.45;73.46;96049.22;6097316;23;20212;-84
2023/01/30 03:41:22;;;;;;;19.03;14.70;;;;;;;-0.47;73.50;96045.97;6097055;23;20184;-85
2023/01/30 03:43:49;;;;;;;20.83;14.97;;;;;;;-0.48;73.67;96044.34;6096890;23;20181;-85
2023/01/30 03:46:15;;;;;;;23.60;14.93;;;;;;;-0.59;74.20;96039.19;6097245;23;20551;-85
2023/01/30 03:48:41;;;;;;;20.40;15.00;;;;;;;-0.63;74.16;96037.75;6099543;23;20196;-86
2023/01/30 03:51:08;;;;;;;20.80;14.40;;;;;;;-0.59;74.07;96034.94;6101032;23;20596;-85
2023/01/30 03:53:38;;;;;;;20.10;14.57;;;;;;;-0.60;74.28;96027.44;6100071;23;20180;-85
2023/01/30 03:56:07;;;;;;;21.63;15.07;;;;;;;-0.55;73.91;96031.28;6101170;23;20191;-86
2023/01/30 03:58:33;;;;;;;20.60;14.70;;;;;;;-0.48;73.34;96036.78;6100497;23;20211;-85
2023/01/30 04:00:59;;;;;;;19.33;14.17;;;;;;;-0.43;73.30;96038.13;6100714;23;20180;-84
2023/01/30 04:03:26;;;;;;;22.47;15.83;;;;;;;-0.43;73.60;96022.94;6100103;23;20652;-85
2023/01/30 04:05:55;;;;;;;23.43;15.30;;;;;;;-0.53;73.48;96026.94;6101008;23;20187;-86
2023/01/30 04:08:21;;;;;;;20.27;14.43;;;;;;;-0.54;73.65;96024.50;6100220;23;20176;-86
2023/01/30 04:10:49;;;;;;;21.00;14.40;;;;;;;-0.56;73.85;96023.78;6100964;23;20168;-86
2023/01/30 04:13:15;;;;;;;20.67;14.43;;;;;;;-0.45;73.99;96049.22;6100013;23;20207;-84
2023/01/30 04:15:42;;;;;;;22.20;14.83;;;;;;;-0.48;73.67;96059.53;6101676;23;20183;-86
2023/01/30 04:18:11;;;;;;;20.90;14.70;;;;;;;-0.44;73.64;96050.84;6101768;23;20200;-86
2023/01/30 04:20:37;;;;;;;19.70;14.30;;;;;;;-0.40;73.84;96058.16;6100451;23;20187;-86
2023/01/30 04:23:04;;;;;;;21.13;14.67;;;;;;;-0.36;73.91;96036.78;6105571;23;20191;-86
2023/01/30 04:25:30;;;;;;;20.63;14.67;;;;;;;-0.41;74.08;96036.28;6103757;23;20192;-86
2023/01/30 04:27:58;;;;;;;20.13;14.60;;;;;;;-0.41;74.09;96041.34;6103768;23;20176;-86
2023/01/30 04:30:25;;;;;;;20.83;14.70;;;;;;;-0.37;74.03;96040.22;6103861;23;20196;-84
2023/01/30 04:32:51;;;;;;;21.37;14.17;;;;;;;-0.46;74.70;96032.44;6103263;23;20180;-85
2023/01/30 04:35:17;;;;;;;21.17;14.77;;;;;;;-0.47;75.29;96049.31;6102084;23;20180;-84
2023/01/30 04:37:44;;;;;;;19.67;13.83;;;;;;;-0.44;75.00;96033.97;6103018;23;20183;-84
2023/01/30 04:40:11;;;;;;;22.07;15.07;;;;;;;-0.47;75.30;96039.22;6104004;23;20204;-85
2023/01/30 04:42:38;;;;;;;22.20;15.23;;;;;;;-0.44;75.56;96021.31;6102812;23;20180;-85
2023/01/30 04:45:07;;;;;;;21.00;14.37;;;;;;;-0.37;74.92;96012.41;6104698;23;20252;-84
2023/01/30 04:47:34;;;;;;;20.77;14.90;;;;;;;-0.30;74.97;95996.84;6103522;23;20177;-86
2023/01/30 04:50:02;;;;;;;20.17;14.57;;;;;;;-0.25;74.70;95990.56;6103557;23;20210;-86
2023/01/30 04:52:28;;;;;;;18.70;13.43;;;;;;;-0.28;75.23;95987.44;6103150;23;20176;-86
2023/01/30 04:54:55;;;;;;;19.23;14.13;;;;;;;-0.17;74.55;95987.53;6103896;23;20180;-84
2023/01/30 04:57:21;;;;;;;20.33;14.30;;;;;;;-0.23;74.91;96010.72;6101350;23;20237;-85
2023/01/30 04:59:47;;;;;;;21.80;14.57;;;;;;;-0.16;74.33;95997.53;6102379;23;20211;-85
2023/01/30 05:02:15;;;;;;;18.63;13.40;;;;;;;-0.12;74.23;95995.63;6101306;23;20257;-85
2023/01/30 05:04:42;;;;;;;18.57;14.10;;;;;;;-0.05;74.17;95995.13;6102333;23;20187;-87
2023/01/30 05:07:10;;;;;;;17.37;13.20;;;;;;;-0.11;74.32;95997.25;6101307;23;20818;-86
2023/01/30 05:09:37;;;;;;;19.47;14.30;;;;;;;-0.02;74.00;95996.66;6101952;23;20193;-85
2023/01/30 05:12:04;;;;;;;18.83;13.77;;;;;;;-0.05;73.74;95995.13;6101052;23;20210;-85
2023/01/30 05:14:30;;;;;;;18.60;13.73;;;;;;;-0.07;73.99;95980.97;6101934;23;20518;-85
2023/01/30 05:16:56;;;;;;;21.13;13.10;;;;;;;-0.16;74.33;95968.91;6100948;23;20184;-85
2023/01/30 05:19:24;;;;;;;20.30;14.07;;;;;;;-0.18;74.33;95963.94;6100186;23;20208;-86
2023/01/30 05:21:51;;;;;;;20.27;14.23;;;;;;;-0.13;74.02;95969.50;6099129;23;20177;-85
2023/01/30 05:24:17;;;;;;;18.23;13.30;;;;;;;-0.13;74.06;95968.69;6099609;23;20263;-87
2023/01/30 05:26:44;;;;;;;19.43;13.80;;;;;;;-0.18;74.22;95966.47;6098201;23;20184;-87
2023/01/30 05:29:10;;;;;;;17.93;12.87;;;;;;;-0.12;74.14;95971.13;6099062;23;20200;-87
2023/01/30 05:31:37;;;;;;;18.53;12.93;;;;;;;-0.07;74.15;95975.91;6098961;23;20204;-87
2023/01/30 05:34:04;;;;;;;19.63;14.27;;;;;;;-0.11;73.86;95980.34;6099342;23;20187;-87
2023/01/30 05:36:31;;;;;;;20.00;12.93;;;;;;;-0.12;74.12;95975.38;6098533;23;20187;-86
2023/01/30 05:38:58;;;;;;;20.53;13.50;;;;;;;-0.16;74.10;95976.50;6099963;23;20204;-86
2023/01/30 05:41:24;;;;;;;16.83;12.77;;;;;;;-0.17;73.88;95975.69;6098742;23;20516;-86
2023/01/30 05:43:51;;;;;;;19.53;12.93;;;;;;;-0.12;73.87;95986.31;6099152;23;20184;-87
2023/01/30 05:46:17;;;;;;;17.53;12.20;;;;;;;-0.17;73.70;95977.41;6100213;23;20184;-87
2023/01/30 05:48:44;;;;;;;17.40;12.50;;;;;;;-0.16;73.96;95963.84;6100319;23;20202;-87
2023/01/30 05:51:18;;;;;;;16.37;12.73;;;;;;;-0.24;74.29;95961.03;6098596;23;20525;-87
2023/01/30 05:53:46;;;;;;;18.33;13.00;;;;;;;-0.25;74.11;95952.63;6093755;23;20179;-86
2023/01/30 05:56:13;;;;;;;17.33;12.47;;;;;;;-0.16;73.82;95957.06;6094225;23;20714;-87
2023/01/30 05:58:39;;;;;;;16.00;12.10;;;;;;;-0.15;74.04;95968.00;6096613;23;20201;-88
2023/01/30 06:01:11;;;;;;;18.10;13.23;;;;;;;-0.11;73.51;95960.09;6097116;23;20187;-89
2023/01/30 06:03:38;;;;;;;16.33;12.40;;;;;;;-0.04;73.50;95960.50;6097563;23;20164;-88
2023/01/30 06:06:06;;;;;;;17.47;12.90;;;;;;;-0.08;73.40;95957.38;6097656;23;20187;-87
2023/01/30 06:08:33;;;;;;;14.80;11.23;;;;;;;-0.18;73.50;95948.75;6098153;23;20183;-87
2023/01/30 06:11:01;;;;;;;17.57;13.00;;;;;;;-0.25;73.94;95946.75;6096816;23;20190;-87
2023/01/30 06:13:28;;;;;;;16.67;11.80;;;;;;;-0.27;74.18;95946.84;6096098;23;20184;-87
2023/01/30 06:15:54;;;;;;;16.23;12.13;;;;;;;-0.29;73.98;95947.84;6095693;23;20180;-87
2023/01/30 06:18:22;;;;;;;15.77;12.10;;;;;;;-0.33;74.62;95962.44;6096459;23;20259;-87
2023/01/30 06:20:49;;;;;;;16.23;12.37;;;;;;;-0.29;74.19;95946.16;6099076;23;20176;-87
2023/01/30 06:23:16;;;;;;;16.90;12.13;;;;;;;-0.21;73.98;95948.19;6099356;23;20184;-87
2023/01/30 06:25:43;;;;;;;16.40;12.00;;;;;;;-0.12;73.75;95945.81;6098125;23;20180;-87
2023/01/30 06:28:12;;;;;;;16.30;11.60;;;;;;;-0.05;73.26;95952.09;6098042;23;20183;-87
2023/01/30 06:30:38;;;;;;;16.73;12.30;;;;;;;-0.04;73.70;95956.25;6098392;23;20747;-88
2023/01/30 06:33:05;;;;;;;14.63;11.00;;;;;;;0.02;73.14;95951.69;6098650;23;20200;-86
2023/01/30 06:35:31;;;;;;;16.43;12.27;;;;;;;0.11;80.71;95953.59;6097886;23;20187;-87
2023/01/30 06:37:58;;;;;;;16.70;12.30;;;;;;;0.16;80.74;95961.72;6098934;23;20180;-87
2023/01/30 06:40:24;;;;;;;16.47;11.80;;;;;;;0.24;74.77;95955.19;6098758;23;20200;-88
2023/01/30 06:42:51;;;;;;;18.63;13.30;;;;;;;0.24;73.18;95957.72;6099329;23;20180;-87
2023/01/30 06:45:19;;;;;;;17.73;12.57;;;;;;;0.22;72.75;95949.41;6098474;23;20519;-88
2023/01/30 06:47:46;;;;;;;15.07;11.17;;;;;;;0.21;72.50;95959.66;6099884;23;20176;-88
2023/01/30 06:50:13;;;;;;;15.33;11.23;;;;;;;0.32;72.52;95965.63;6102442;23;20203;-87
2023/01/30 06:52:43;;;;;;;16.83;12.17;;;;;;;0.32;72.26;95972.41;6100571;23;20514;-88
2023/01/30 06:55:10;;;;;;;14.80;10.90;;;;;;;0.32;72.26;95965.63;6099950;23;20180;-87
2023/01/30 06:57:37;;;;;;;15.83;11.67;;;;;;;0.25;72.07;95968.66;6099524;23;20184;-88
2023/01/30 07:00:05;;;;;;;15.13;11.23;;;;;;;0.27;72.27;95975.25;6099186;23;20215;-87
2023/01/30 07:02:34;;;;;;;16.13;11.23;;;;;;;0.35;71.74;95969.66;6099691;23;20207;-87
2023/01/30 07:05:01;;;;;;;15.03;11.53;;;;;;;0.33;71.32;95979.91;6100150;23;20239;-87
2023/01/30 07:07:28;;;;;;;14.70;11.20;;;;;;;0.42;71.41;95975.91;6098457;23;20176;-88
2023/01/30 07:09:54;;;;;;;15.37;11.00;;;;;;;0.40;71.42;95977.75;6100151;23;20196;-87
2023/01/30 07:12:21;;;;;;;18.37;11.43;;;;;;;0.44;70.99;95974.09;6099515;23;20188;-88
2023/01/30 07:14:47;;;;;;;15.57;10.87;;;;;;;0.40;70.74;95970.16;6099169;23;20421;-87
2023/01/30 07:17:14;;;;;;;15.57;11.73;;;;;;;0.49;70.80;95974.59;6100164;23;20184;-87
2023/01/30 07:19:42;;;;;;;16.93;11.60;;;;;;;0.57;70.33;95981.69;6096569;23;20210;-85
2023/01/30 07:22:09;;;;;;;14.33;10.57;;;;;;;0.71;70.19;95989.13;6093123;23;20644;-88
2023/01/30 07:24:35;;;;;;;13.17;10.20;;;;;;;0.68;69.94;95977.47;6095635;23;20187;-89
2023/01/30 07:27:01;;;;;;;13.50;9.60;;;;;;;0.61;68.85;95986.41;6096679;23;20176;-87
2023/01/30 07:29:28;;;;;;;14.77;10.63;;;;;;;0.65;69.45;95989.53;6095728;23;20192;-87
2023/01/30 07:31:54;;;;;;;13.13;9.73;;;;;;;0.71;69.11;95980.72;6095014;23;20183;-87
2023/01/30 07:34:21;;;;;;;13.97;10.10;;;;;;;0.78;68.76;95974.28;6094849;23;20187;-87
2023/01/30 07:36:49;;;;;;;13.17;10.07;;;;;;;0.86;68.76;95975.38;6093349;23;20187;-87
2023/01/30 07:39:15;;;;;;;15.00;11.03;;;;;;;0.86;67.89;95970.31;6095336;23;20200;-88
2023/01/30 07:41:41;;;;;;;13.47;10.07;;;;;;;0.93;67.54;95958.84;6094701;23;20542;-88
2023/01/30 07:44:08;;;;;;;13.47;10.20;;;;;;;0.85;67.19;95961.09;6094651;23;20180;-87
2023/01/30 07:46:35;;;;;;;12.53;9.53;;;;;;;0.83;67.19;95962.91;6093670;23;20720;-87
2023/01/30 07:49:01;;;;;;;12.27;9.43;;;;;;;0.82;66.98;95961.28;6094869;23;20203;-86
2023/01/30 07:51:28;;;;;;;14.33;9.73;;;;;;;0.80;67.03;95950.47;6095241;23;20521;-87
2023/01/30 07:53:56;;;;;;;12.30;9.60;;;;;;;0.94;67.09;95935.09;6094197;23;20183;-87
2023/01/30 07:56:22;;;;;;;12.37;9.23;;;;;;;0.94;66.24;95931.75;6096376;23;20207;-87
2023/01/30 07:58:49;;;;;;;12.93;9.10;;;;;;;0.89;66.48;95921.94;6098086;23;20197;-86
2023/01/30 08:01:16;;;;;;;11.83;8.53;;;;;;;0.89;66.16;95928.75;6096091;23;20768;-86
2023/01/30 08:03:44;;;;;;;13.77;10.43;;;;;;;0.96;65.59;95917.25;6100167;23;20187;-86
2023/01/30 08:06:12;;;;;;;11.53;9.03;;;;;;;1.08;65.92;95913.03;6098797;23;20179;-86
2023/01/30 08:08:39;;;;;;;13.40;9.80;;;;;;;1.11;65.35;95921.22;6097756;23;20203;-86
2023/01/30 08:11:07;;;;;;;14.30;9.40;;;;;;;1.20;65.04;95918.00;6098133;23;20180;-86
2023/01/30 08:13:34;;;;;;;13.07;8.87;;;;;;;1.20;64.12;95910.41;6097284;23;20192;-86
2023/01/30 08:16:00;;;;;;;12.00;9.00;;;;;;;1.22;64.06;95910.28;6097070;23;20183;-86
2023/01/30 08:18:28;;;;;;;11.53;8.53;;;;;;;1.29;64.03;95908.94;6097018;23;20187;-87
2023/01/30 08:20:57;;;;;;;12.60;8.83;;;;;;;1.34;63.68;95920.38;6099419;23;20207;-87
2023/01/30 08:23:23;;;;;;;14.30;9.73;;;;;;;1.70;63.02;95923.66;6098895;23;20335;-86
2023/01/30 08:25:50;;;;;;;12.83;9.13;;;;;;;2.02;61.67;95904.28;6097847;23;20184;-87
2023/01/30 08:28:17;;;;;;;11.70;9.00;;;;;;;2.22;61.34;95918.00;6097101;23;20204;-88
2023/01/30 08:30:44;;;;;;;11.23;8.60;;;;;;;2.35;60.71;95905.97;6096024;23;20207;-88
2023/01/30 08:33:11;;;;;;;11.80;8.43;;;;;;;2.02;61.01;95903.47;6096606;23;20184;-87
2023/01/30 08:35:37;;;;;;;13.30;9.47;;;;;;;2.15;61.61;95913.47;6095536;23;20187;-88
2023/01/30 08:38:06;;;;;;;12.87;9.00;;;;;;;2.41;60.79;95890.25;6095895;23;20187;-88
2023/01/30 08:40:32;;;;;;;13.57;9.57;;;;;;;2.59;64.05;95887.19;6095480;23;20214;-88
2023/01/30 08:42:59;;;;;;;9.27;7.60;;;;;;;3.46;77.19;95893.75;6094129;23;20180;-88
2023/01/30 08:45:30;;;;;;;12.07;8.83;;;;;;;4.26;67.02;95887.91;6093777;23;20173;-88
2023/01/30 08:48:02;;;;;;;11.53;8.77;;;;;;;4.44;56.88;95884.59;6095310;23;20164;-87
2023/01/30 08:50:29;;;;;;;13.50;8.83;;;;;;;3.97;56.43;95883.53;6097062;23;20193;-88
2023/01/30 08:52:56;;;;;;;12.27;9.67;;;;;;;3.52;57.22;95890.69;6097793;23;20239;-87
2023/01/30 08:55:22;;;;;;;11.50;8.87;;;;;;;3.49;57.25;95885.84;6098424;23;20514;-87
2023/01/30 08:57:49;;;;;;;12.63;9.03;;;;;;;3.34;57.15;95869.28;6099243;23;20187;-88
2023/01/30 09:00:16;;;;;;;11.47;9.33;;;;;;;3.17;57.93;95883.38;6098797;23;20200;-88
2023/01/30 09:02:44;;;;;;;12.33;9.00;;;;;;;3.06;58.28;95896.97;6098068;23;20738;-87
2023/01/30 09:05:11;;;;;;;10.67;8.17;;;;;;;3.29;58.25;95864.56;6097998;23;20187;-86
2023/01/30 09:07:37;;;;;;;11.93;9.17;;;;;;;3.43;57.35;95860.91;6098479;23;20188;-87
2023/01/30 09:10:04;;;;;;;11.60;9.43;;;;;;;3.61;57.14;95884.84;6096488;23;20192;-86
2023/01/30 09:12:31;;;;;;;12.10;9.07;;;;;;;3.94;57.21;95883.78;6097062;23;20272;-85
2023/01/30 09:15:11;;;;;;;8.43;6.90;;;;;;;4.54;70.52;95876.16;6093607;23;20180;-86
2023/01/30 09:17:37;;;;;;;12.97;9.37;;;;;;;5.11;57.21;95855.75;6093764;23;20164;-87
2023/01/30 09:20:09;;;;;;;12.87;9.20;;;;;;;4.91;54.02;95855.91;6096731;23;20283;-87
2023/01/30 09:22:39;;;;;;;10.27;8.37;;;;;;;4.93;53.89;95859.94;6097156;23;20191;-87
2023/01/30 09:25:08;;;;;;;12.90;9.40;;;;;;;4.65;53.70;95848.78;6094766;23;20176;-86
2023/01/30 09:27:34;;;;;;;11.43;9.87;;;;;;;4.51;53.74;95857.63;6095085;23;20184;-87
2023/01/30 09:30:00;;;;;;;12.10;9.90;;;;;;;4.47;53.80;95875.88;6091656;23;20211;-88
2023/01/30 09:32:27;;;;;;;10.20;8.97;;;;;;;4.51;54.05;95889.97;6087083;23;20651;-88
2023/01/30 09:34:54;;;;;;;10.73;8.97;;;;;;;4.48;53.57;95897.88;6096031;23;20215;-89
2023/01/30 09:37:21;;;;;;;13.00;9.03;;;;;;;4.50;54.50;95889.16;6094351;23;20176;-88
2023/01/30 09:39:48;;;;;;;11.37;9.20;;;;;;;4.67;53.56;95869.88;6094437;23;20208;-88
2023/01/30 09:42:42;;;;;;;13.07;8.60;;;;;;;4.47;52.68;95878.44;6093877;23;20184;-88
2023/01/30 09:45:30;;;;;;;9.63;8.63;;;;;;;4.35;52.91;95861.66;6094218;23;20176;-87
2023/01/30 09:48:06;;;;;;;13.40;8.73;;;;;;;4.06;52.09;95872.56;6095278;23;20165;-89
2023/01/30 09:51:01;;;;;;;13.37;8.53;;;;;;;3.93;53.00;95866.06;6095289;23;20203;-87
2023/01/30 09:53:38;;;;;;;12.80;7.97;;;;;;;3.70;53.44;95858.63;6094811;23;20179;-88
2023/01/30 09:56:05;;;;;;;12.13;8.13;;;;;;;3.71;54.04;95854.34;6094757;23;20204;-87
2023/01/30 09:58:42;;;;;;;11.00;7.73;;;;;;;3.63;54.01;95844.00;6095322;23;20168;-88
2023/01/30 10:01:16;;;;;;;10.63;7.90;;;;;;;3.51;54.58;95848.34;6094286;23;20267;-87
2023/01/30 10:04:04;;;;;;;11.00;8.17;;;;;;;3.44;55.15;95849.81;6095578;23;20160;-88
2023/01/30 10:06:36;;;;;;;12.57;7.50;;;;;;;3.47;55.78;95834.25;6095129;23;20168;-87
2023/01/30 10:09:15;;;;;;;15.13;10.83;;;;;;;3.70;55.75;95838.25;6094974;23;20209;-87
2023/01/30 10:11:55;;;;;;;8.33;7.27;;;;;;;3.91;55.46;95848.38;6096059;23;20189;-89
2023/01/30 10:14:39;;;;;;;13.30;7.73;;;;;;;4.11;55.56;95855.16;6095952;23;20500;-89
2023/01/30 10:17:23;;;;;;;12.43;7.57;;;;;;;4.23;56.04;95824.47;6095780;23;20168;-89
2023/01/30 10:20:07;;;;;;;9.23;6.93;;;;;;;4.23;55.60;95820.19;6095697;23;20211;-88
2023/01/30 10:22:46;;;;;;;8.23;6.63;;;;;;;4.53;56.18;95800.63;6096190;23;20239;-88
2023/01/30 10:25:28;;;;;;;9.03;6.77;;;;;;;4.79;55.62;95805.06;6097076;23;20165;-87
2023/01/30 10:28:03;;;;;;;9.40;6.57;;;;;;;4.72;56.07;95800.59;6097274;23;20686;-88
2023/01/30 10:30:32;;;;;;;8.37;6.20;;;;;;;4.76;56.10;95797.66;6097659;23;20192;-87
2023/01/30 10:33:04;;;;;;;7.73;6.20;;;;;;;4.70;55.87;95790.53;6097217;23;20230;-88
2023/01/30 10:35:34;;;;;;;7.97;6.40;;;;;;;4.63;56.77;95769.06;6096892;23;20543;-88
2023/01/30 10:38:11;;;;;;;7.77;6.33;;;;;;;4.74;56.22;95766.38;6096319;23;20167;-89
2023/01/30 10:40:42;;;;;;;8.20;6.20;;;;;;;4.76;56.32;95758.59;6097140;23;20199;-88
2023/01/30 10:43:19;;;;;;;8.83;6.40;;;;;;;4.84;55.86;95764.63;6096027;23;20160;-88
2023/01/30 10:45:59;;;;;;;6.50;5.77;;;;;;;4.93;56.13;95783.41;6097196;23;20164;-88
2023/01/30 10:48:50;;;;;;;9.10;6.43;;;;;;;5.11;56.45;95776.66;6096789;23;20219;-89
2023/01/30 10:51:26;;;;;;;8.27;6.23;;;;;;;5.03;55.96;95763.78;6097423;23;20161;-89
2023/01/30 10:53:59;;;;;;;7.50;5.77;;;;;;;5.10;56.73;95776.78;6097963;23;20160;-88
2023/01/30 10:56:37;;;;;;;9.63;6.30;;;;;;;4.84;57.17;95766.34;6097801;23;20160;-89
2023/01/30 10:59:16;;;;;;;7.60;6.33;;;;;;;4.84;57.45;95774.00;6098180;23;20535;-88
2023/01/30 11:01:45;;;;;;;9.57;5.53;;;;;;;4.61;58.01;95772.72;6096537;23;20803;-88
2023/01/30 11:04:23;;;;;;;10.10;5.50;;;;;;;4.56;57.93;95770.56;6097363;23;20232;-88
2023/01/30 11:06:52;;;;;;;7.30;5.97;;;;;;;4.61;58.36;95776.06;6097170;23;20164;-88
2023/01/30 11:09:18;;;;;;;7.73;6.17;;;;;;;4.48;58.40;95760.22;6096454;23;20200;-88
2023/01/30 11:11:50;;;;;;;8.83;7.00;;;;;;;4.48;58.18;95762.75;6097865;23;20767;-88
2023/01/30 11:14:17;;;;;;;8.30;5.87;;;;;;;4.40;58.66;95745.63;6099220;23;20172;-88
2023/01/30 11:16:46;;;;;;;7.53;6.07;;;;;;;4.28;59.27;95733.13;6097213;23;20180;-89
2023/01/30 11:19:15;;;;;;;7.43;5.70;;;;;;;4.14;60.04;95739.44;6098090;23;20197;-88
2023/01/30 11:21:47;;;;;;;6.83;5.53;;;;;;;4.14;60.01;95734.34;6098129;23;20204;-88
2023/01/30 11:24:16;;;;;;;6.83;5.30;;;;;;;4.29;60.22;95732.19;6097347;23;20160;-89
2023/01/30 11:26:45;;;;;;;6.03;5.00;;;;;;;4.42;60.28;95718.25;6098314;23;20241;-89
2023/01/30 11:29:24;;;;;;;7.73;5.53;;;;;;;4.55;59.77;95720.50;6096995;23;20200;-90
2023/01/30 11:31:51;;;;;;;6.57;5.03;;;;;;;4.70;59.29;95692.81;6097686;23;20184;-89
2023/01/30 11:34:19;;;;;;;6.50;5.37;;;;;;;5.02;58.77;95700.13;6097401;23;20507;-89
2023/01/30 11:36:46;;;;;;;8.00;5.40;;;;;;;4.99;58.52;95697.88;6093943;23;20184;-88
2023/01/30 11:39:23;;;;;;;6.60;5.10;;;;;;;4.88;59.13;95714.13;6093993;23;20203;-88
2023/01/30 11:42:03;;;;;;;6.63;5.10;;;;;;;4.69;59.36;95692.03;6092877;23;20196;-87
2023/01/30 11:44:33;;;;;;;7.27;5.07;;;;;;;4.60;59.47;95682.66;6093481;23;20164;-88
2023/01/30 11:47:02;;;;;;;6.50;5.20;;;;;;;4.55;60.47;95674.63;6092809;23;20176;-89